Time;durP1;ratioP1;P1;durP2;ratioP2;P2;SDS_P1;SDS_P2;PMS_P1;PMS_P2;Temp;Humidity;BMP_temperature;BMP_pressure;BME280_temperature;BME280_humidity;BME280_pressure;Samples;Min_cycle;Max_cycle;Signal;HPM_P1;HPM_P2
2021/10/03 00:01:08;;;;;;;10.03;6.83;;;17.50;99.90;;;;;;5039190;28;20943;-81
2021/10/03 00:03:40;;;;;;;8.93;6.00;;;17.40;99.90;;;;;;5041347;28;20479;-82
2021/10/03 00:06:09;;;;;;;8.93;6.60;;;17.40;99.90;;;;;;5040307;28;20445;-81
2021/10/03 00:08:36;;;;;;;8.07;6.10;;;17.20;99.90;;;;;;5039905;28;20984;-80
2021/10/03 00:11:02;;;;;;;8.93;6.20;;;17.20;99.90;;;;;;5041397;28;20532;-77
2021/10/03 00:13:30;;;;;;;8.80;6.37;;;17.30;99.90;;;;;;5048815;28;20560;-80
2021/10/03 00:15:57;;;;;;;7.60;5.70;;;17.20;99.90;;;;;;5039692;28;20456;-81
2021/10/03 00:18:25;;;;;;;8.27;6.53;;;17.30;99.90;;;;;;5040237;28;20469;-81
2021/10/03 00:20:53;;;;;;;8.37;6.23;;;17.20;99.90;;;;;;5039786;28;20465;-81
2021/10/03 00:23:20;;;;;;;9.67;6.07;;;17.30;99.90;;;;;;5039843;28;20448;-81
2021/10/03 00:25:48;;;;;;;9.30;6.90;;;17.20;99.90;;;;;;5039871;28;20459;-81
2021/10/03 00:28:15;;;;;;;9.27;5.57;;;17.20;99.90;;;;;;5039759;28;20490;-80
2021/10/03 00:30:44;;;;;;;7.90;6.10;;;17.20;99.90;;;;;;5039869;28;20456;-82
2021/10/03 00:33:11;;;;;;;9.73;5.93;;;17.10;99.90;;;;;;5038680;28;20815;-79
2021/10/03 00:35:40;;;;;;;8.40;5.93;;;17.00;99.90;;;;;;5039330;28;20495;-80
2021/10/03 00:38:08;;;;;;;7.13;5.67;;;17.00;99.90;;;;;;5039751;28;20481;-80
2021/10/03 00:40:37;;;;;;;10.83;6.10;;;16.90;99.90;;;;;;5039867;28;20482;-80
2021/10/03 00:43:05;;;;;;;11.67;6.23;;;17.00;99.90;;;;;;5039217;28;20447;-81
2021/10/03 00:45:33;;;;;;;9.47;5.80;;;16.90;99.90;;;;;;5039687;28;20871;-82
2021/10/03 00:48:01;;;;;;;8.90;6.50;;;16.80;99.90;;;;;;5039331;28;20517;-81
2021/10/03 00:50:29;;;;;;;8.20;6.43;;;16.80;99.90;;;;;;5038626;28;20463;-80
2021/10/03 00:52:57;;;;;;;8.23;6.40;;;16.80;99.90;;;;;;5040032;28;20456;-81
2021/10/03 00:55:25;;;;;;;8.37;5.80;;;16.80;99.90;;;;;;5040643;28;20488;-81
2021/10/03 00:57:53;;;;;;;7.63;5.97;;;16.80;99.90;;;;;;5041164;28;20514;-80
2021/10/03 01:00:23;;;;;;;8.67;6.87;;;16.80;99.90;;;;;;5040223;28;20839;-81
2021/10/03 01:02:50;;;;;;;11.07;6.20;;;16.90;99.90;;;;;;5042274;28;20809;-80
2021/10/03 01:05:17;;;;;;;9.93;6.40;;;16.90;99.90;;;;;;5042435;28;20455;-80
2021/10/03 01:07:44;;;;;;;7.40;6.33;;;16.80;99.90;;;;;;5039184;28;20530;-80
2021/10/03 01:10:17;;;;;;;9.57;6.20;;;16.90;99.90;;;;;;5040146;28;20455;-81
2021/10/03 01:12:44;;;;;;;11.60;6.43;;;17.00;99.90;;;;;;5038832;28;20426;-81
2021/10/03 01:15:11;;;;;;;9.83;6.37;;;16.80;99.90;;;;;;5038806;28;20502;-81
2021/10/03 01:17:38;;;;;;;8.37;6.30;;;16.90;99.90;;;;;;5038988;28;20495;-80
2021/10/03 01:20:07;;;;;;;9.23;6.33;;;16.80;99.90;;;;;;5046556;28;20470;-77
2021/10/03 01:22:36;;;;;;;8.37;6.10;;;16.80;99.90;;;;;;5047262;28;20456;-78
2021/10/03 01:25:06;;;;;;;9.13;6.40;;;16.80;99.90;;;;;;5038965;28;20433;-80
2021/10/03 01:27:33;;;;;;;7.20;6.00;;;16.70;99.90;;;;;;5045911;28;20458;-78
2021/10/03 01:30:00;;;;;;;8.13;6.10;;;16.80;99.90;;;;;;5047594;23;20583;-82
2021/10/03 01:32:27;;;;;;;9.90;6.23;;;16.80;99.90;;;;;;5019209;28;20464;-82
2021/10/03 01:34:53;;;;;;;8.63;6.20;;;16.80;99.90;;;;;;5019126;28;20497;-80
2021/10/03 01:37:22;;;;;;;8.63;6.00;;;16.80;99.90;;;;;;5018693;28;20950;-80
2021/10/03 01:39:50;;;;;;;7.73;5.43;;;16.80;99.90;;;;;;5018277;28;20555;-81
2021/10/03 01:42:18;;;;;;;7.60;6.00;;;17.00;99.90;;;;;;5019398;28;20453;-80
2021/10/03 01:44:44;;;;;;;8.80;6.20;;;17.10;99.90;;;;;;5019590;28;20508;-81
2021/10/03 01:47:11;;;;;;;7.87;6.13;;;17.00;99.90;;;;;;5027542;28;20454;-82
2021/10/03 01:49:38;;;;;;;10.10;6.10;;;17.00;99.90;;;;;;5031703;28;20481;-81
2021/10/03 01:52:05;;;;;;;8.10;6.20;;;17.00;99.90;;;;;;5019230;28;20449;-82
2021/10/03 01:54:33;;;;;;;7.57;5.80;;;17.20;99.90;;;;;;5021019;28;20511;-80
2021/10/03 01:57:02;;;;;;;8.10;6.23;;;17.20;99.90;;;;;;5022281;28;20457;-81
2021/10/03 01:59:29;;;;;;;7.33;5.77;;;17.10;99.90;;;;;;5019282;28;20473;-81
2021/10/03 02:01:57;;;;;;;7.67;5.47;;;17.10;99.90;;;;;;5021563;28;20432;-80
2021/10/03 02:04:25;;;;;;;7.00;5.40;;;17.20;99.90;;;;;;5021668;28;20469;-81
2021/10/03 02:06:55;;;;;;;8.30;5.70;;;17.20;99.90;;;;;;5017673;28;20446;-81
2021/10/03 02:09:24;;;;;;;7.03;5.77;;;17.10;99.90;;;;;;5017553;28;20513;-81
2021/10/03 02:11:59;;;;;;;6.93;4.87;;;17.10;99.90;;;;;;5017297;28;20457;-81
2021/10/03 02:14:31;;;;;;;6.17;5.17;;;17.10;99.90;;;;;;5017672;28;20505;-81
2021/10/03 02:16:59;;;;;;;8.70;5.63;;;17.00;99.90;;;;;;5018746;28;20437;-80
2021/10/03 02:19:28;;;;;;;6.30;4.87;;;17.00;99.90;;;;;;5020522;28;20550;-81
2021/10/03 02:21:55;;;;;;;6.70;5.00;;;17.00;99.90;;;;;;5019026;28;20434;-79
2021/10/03 02:24:23;;;;;;;8.60;5.30;;;17.00;99.90;;;;;;5026913;28;20463;-79
2021/10/03 02:26:50;;;;;;;6.50;5.50;;;16.90;99.90;;;;;;5025562;28;20414;-79
2021/10/03 02:29:17;;;;;;;7.40;5.37;;;16.90;99.90;;;;;;5024007;28;20501;-78
2021/10/03 02:31:46;;;;;;;11.13;5.77;;;17.00;99.90;;;;;;5024737;28;20463;-79
2021/10/03 02:34:13;;;;;;;7.57;5.17;;;17.00;99.90;;;;;;5021103;28;20449;-81
2021/10/03 02:36:40;;;;;;;7.77;5.77;;;17.00;99.90;;;;;;5017224;28;20543;-80
2021/10/03 02:39:07;;;;;;;8.50;5.97;;;17.00;99.90;;;;;;5018874;28;20476;-80
2021/10/03 02:41:33;;;;;;;7.00;5.27;;;17.00;99.90;;;;;;5016761;28;20489;-80
2021/10/03 02:44:01;;;;;;;6.80;5.30;;;17.00;99.90;;;;;;5017117;28;20450;-81
2021/10/03 02:46:29;;;;;;;7.80;5.50;;;17.10;99.90;;;;;;5015919;28;20485;-81
2021/10/03 02:48:57;;;;;;;7.07;5.10;;;17.00;99.90;;;;;;5016347;28;20561;-81
2021/10/03 02:51:27;;;;;;;7.53;5.50;;;17.00;99.90;;;;;;5016244;28;20432;-80
2021/10/03 02:53:55;;;;;;;7.43;5.50;;;16.90;99.90;;;;;;5015906;28;20860;-80
2021/10/03 02:56:30;;;;;;;8.80;5.87;;;17.00;99.90;;;;;;5015876;28;20485;-81
2021/10/03 02:58:58;;;;;;;6.87;5.30;;;17.00;99.90;;;;;;5016298;28;20491;-80
2021/10/03 03:01:25;;;;;;;8.87;4.93;;;16.90;99.90;;;;;;5015655;28;20535;-80
2021/10/03 03:03:52;;;;;;;7.10;5.40;;;17.00;99.90;;;;;;5015677;28;20431;-81
2021/10/03 03:06:20;;;;;;;7.83;5.70;;;17.00;99.90;;;;;;5016174;28;20442;-80
2021/10/03 03:08:47;;;;;;;9.27;5.17;;;17.00;99.90;;;;;;5016102;28;20476;-80
2021/10/03 03:11:14;;;;;;;7.53;5.43;;;17.00;99.90;;;;;;5016160;28;20456;-81
2021/10/03 03:13:42;;;;;;;7.03;5.40;;;17.00;99.90;;;;;;5015715;28;20480;-81
2021/10/03 03:16:18;;;;;;;8.10;5.30;;;16.90;99.90;;;;;;5016250;28;20928;-80
2021/10/03 03:18:44;;;;;;;7.00;5.33;;;16.90;99.90;;;;;;5016341;28;20447;-81
2021/10/03 03:21:12;;;;;;;5.70;4.77;;;16.90;99.90;;;;;;5016159;28;20520;-81
2021/10/03 03:23:41;;;;;;;7.43;5.03;;;16.90;99.90;;;;;;5016252;28;20454;-81
2021/10/03 03:26:08;;;;;;;10.93;4.90;;;16.80;99.90;;;;;;5016191;28;20454;-81
2021/10/03 03:28:34;;;;;;;7.70;5.50;;;16.80;99.90;;;;;;5015296;28;20485;-81
2021/10/03 03:31:01;;;;;;;8.80;5.10;;;16.80;99.90;;;;;;5016109;28;20450;-81
2021/10/03 03:33:28;;;;;;;8.00;5.43;;;16.90;99.90;;;;;;5017664;28;20503;-81
2021/10/03 03:35:56;;;;;;;6.90;4.50;;;16.90;99.90;;;;;;5015304;28;20499;-81
2021/10/03 03:38:23;;;;;;;7.77;5.33;;;16.80;99.90;;;;;;5015514;28;20454;-80
2021/10/03 03:40:51;;;;;;;7.17;4.73;;;16.80;99.90;;;;;;5015344;28;20980;-80
2021/10/03 03:43:18;;;;;;;9.07;5.60;;;16.70;99.90;;;;;;5017282;28;20483;-80
2021/10/03 03:45:45;;;;;;;7.63;5.03;;;16.80;99.90;;;;;;5020637;28;20934;-80
2021/10/03 03:48:12;;;;;;;7.27;4.53;;;16.80;99.90;;;;;;5018008;28;20460;-81
2021/10/03 03:50:40;;;;;;;6.47;4.97;;;16.80;99.90;;;;;;5032409;28;20469;-79
2021/10/03 03:53:07;;;;;;;7.37;5.03;;;16.90;99.90;;;;;;5021931;28;20608;-81
2021/10/03 03:55:34;;;;;;;6.47;4.87;;;16.80;99.90;;;;;;5017260;28;20488;-81
2021/10/03 03:58:02;;;;;;;10.63;5.37;;;16.80;99.90;;;;;;5020098;28;20458;-81
2021/10/03 04:00:29;;;;;;;7.03;5.70;;;16.80;99.90;;;;;;5025274;28;20454;-80
2021/10/03 04:02:56;;;;;;;6.63;5.03;;;16.80;99.90;;;;;;5020743;28;20548;-81
2021/10/03 04:05:23;;;;;;;11.37;5.23;;;16.80;99.90;;;;;;5020271;28;20449;-81
2021/10/03 04:07:50;;;;;;;10.67;5.50;;;16.80;99.90;;;;;;5016749;28;20452;-80
2021/10/03 04:10:17;;;;;;;8.80;5.20;;;16.70;99.90;;;;;;5015568;28;20443;-80
2021/10/03 04:12:43;;;;;;;6.37;5.17;;;16.80;99.90;;;;;;5016005;28;20449;-80
2021/10/03 04:15:12;;;;;;;8.10;5.10;;;16.80;99.90;;;;;;5014995;28;21019;-81
2021/10/03 04:17:38;;;;;;;6.30;4.87;;;16.70;99.90;;;;;;5014790;28;20507;-81
2021/10/03 04:20:07;;;;;;;6.13;4.80;;;16.70;99.90;;;;;;5016028;28;20479;-81
2021/10/03 04:22:34;;;;;;;7.53;5.63;;;16.70;99.90;;;;;;5016177;28;20461;-81
2021/10/03 04:25:01;;;;;;;7.50;4.50;;;16.70;99.90;;;;;;5015488;28;20451;-80
2021/10/03 04:27:28;;;;;;;9.43;5.60;;;16.70;99.90;;;;;;5018919;28;20449;-81
2021/10/03 04:29:55;;;;;;;8.03;4.83;;;16.70;99.90;;;;;;5016777;28;20586;-80
2021/10/03 04:32:23;;;;;;;8.33;4.90;;;16.60;99.90;;;;;;5014904;28;20923;-81
2021/10/03 04:34:50;;;;;;;6.70;5.17;;;16.70;99.90;;;;;;5015482;28;20453;-81
2021/10/03 04:37:17;;;;;;;7.93;4.90;;;16.70;99.90;;;;;;5016178;28;20452;-80
2021/10/03 04:39:44;;;;;;;6.27;4.60;;;16.70;99.90;;;;;;5015268;28;20531;-80
2021/10/03 04:42:11;;;;;;;7.47;5.00;;;16.70;99.90;;;;;;5016051;28;20455;-81
2021/10/03 04:44:37;;;;;;;6.67;4.50;;;16.80;99.90;;;;;;5022938;28;20830;-80
2021/10/03 04:47:04;;;;;;;6.87;4.90;;;16.80;99.90;;;;;;5028248;28;20437;-80
2021/10/03 04:49:33;;;;;;;7.17;5.07;;;16.80;99.90;;;;;;5019229;28;20485;-81
2021/10/03 04:51:59;;;;;;;8.03;5.17;;;16.70;99.90;;;;;;5018256;28;20543;-80
2021/10/03 04:54:26;;;;;;;5.73;4.13;;;16.70;99.90;;;;;;5020035;28;20488;-80
2021/10/03 04:56:53;;;;;;;5.67;4.50;;;16.80;99.90;;;;;;5019330;28;20489;-80
2021/10/03 04:59:20;;;;;;;7.50;4.50;;;16.80;99.90;;;;;;5018870;28;20540;-79
2021/10/03 05:01:47;;;;;;;6.27;4.40;;;16.80;99.90;;;;;;5018879;28;20933;-80
2021/10/03 05:04:14;;;;;;;8.30;4.33;;;16.60;99.90;;;;;;5018923;28;20457;-80
2021/10/03 05:06:42;;;;;;;20.27;6.23;;;16.60;99.90;;;;;;5018791;28;20456;-80
2021/10/03 05:09:09;;;;;;;9.70;4.97;;;16.80;99.90;;;;;;5018409;28;20915;-80
2021/10/03 05:11:36;;;;;;;7.10;4.57;;;16.90;99.90;;;;;;5018635;28;20456;-80
2021/10/03 05:14:06;;;;;;;7.53;4.30;;;16.80;99.90;;;;;;5019371;28;20555;-80
2021/10/03 05:16:34;;;;;;;10.40;4.73;;;16.80;99.90;;;;;;5019386;28;20576;-79
2021/10/03 05:19:01;;;;;;;5.90;4.20;;;16.70;99.90;;;;;;5018204;28;20891;-80
2021/10/03 05:21:28;;;;;;;7.47;4.50;;;16.90;99.90;;;;;;5017688;28;20994;-81
2021/10/03 05:23:57;;;;;;;7.23;4.20;;;16.90;99.90;;;;;;5018015;28;20435;-79
2021/10/03 05:26:24;;;;;;;7.00;4.93;;;16.80;99.90;;;;;;5018028;28;20468;-81
2021/10/03 05:28:50;;;;;;;6.90;4.47;;;16.80;99.90;;;;;;5019315;28;20485;-82
2021/10/03 05:31:17;;;;;;;7.13;4.17;;;16.80;99.90;;;;;;5019080;28;20478;-81
2021/10/03 05:33:44;;;;;;;6.43;4.40;;;16.80;99.90;;;;;;5020531;28;20464;-78
2021/10/03 05:36:11;;;;;;;7.50;4.23;;;16.80;99.90;;;;;;5026844;28;20555;-78
2021/10/03 05:38:38;;;;;;;13.33;5.00;;;16.80;99.90;;;;;;5020560;28;20568;-80
2021/10/03 05:41:06;;;;;;;6.20;4.67;;;16.80;99.90;;;;;;5018329;28;20514;-80
2021/10/03 05:43:34;;;;;;;7.13;4.40;;;16.90;99.90;;;;;;5022839;28;20517;-79
2021/10/03 05:46:01;;;;;;;6.40;4.33;;;16.80;99.90;;;;;;5019040;28;20445;-80
2021/10/03 05:48:28;;;;;;;6.13;4.33;;;16.80;99.90;;;;;;5017751;28;20480;-80
2021/10/03 05:50:55;;;;;;;8.13;4.50;;;16.80;99.90;;;;;;5021031;28;20447;-80
2021/10/03 05:53:22;;;;;;;8.00;4.83;;;16.90;99.90;;;;;;5034028;28;20435;-80
2021/10/03 05:55:48;;;;;;;7.83;4.30;;;16.90;99.90;;;;;;5020444;28;20460;-79
2021/10/03 05:58:16;;;;;;;8.60;4.10;;;16.90;99.90;;;;;;4999576;28;20458;-81
2021/10/03 06:00:43;;;;;;;7.63;4.70;;;17.10;99.90;;;;;;5000019;28;20455;-81
2021/10/03 06:03:10;;;;;;;8.47;4.90;;;17.10;99.90;;;;;;5000010;28;20444;-81
2021/10/03 06:05:37;;;;;;;6.77;4.10;;;17.20;99.90;;;;;;4998814;28;20446;-79
2021/10/03 06:08:04;;;;;;;6.80;4.47;;;17.10;99.90;;;;;;5003709;28;20537;-82
2021/10/03 06:10:31;;;;;;;7.00;4.70;;;17.00;99.90;;;;;;5007825;28;20484;-80
2021/10/03 06:12:58;;;;;;;6.67;4.03;;;17.10;99.90;;;;;;5025165;28;20452;-80
2021/10/03 06:15:26;;;;;;;5.20;3.70;;;17.20;99.90;;;;;;5022384;28;20446;-80
2021/10/03 06:17:53;;;;;;;6.83;4.20;;;17.20;99.90;;;;;;5023831;28;20457;-79
2021/10/03 06:20:20;;;;;;;5.40;4.07;;;17.20;99.90;;;;;;5021600;28;20537;-78
2021/10/03 06:22:47;;;;;;;6.23;4.20;;;17.30;99.90;;;;;;5025333;28;20560;-80
2021/10/03 06:25:14;;;;;;;6.60;4.60;;;17.30;99.90;;;;;;5016703;28;20851;-80
2021/10/03 06:27:41;;;;;;;5.13;3.80;;;17.40;99.90;;;;;;5017398;28;20453;-80
2021/10/03 06:30:09;;;;;;;5.97;3.87;;;17.40;99.90;;;;;;5017031;28;20497;-80
2021/10/03 06:32:38;;;;;;;6.03;4.10;;;17.50;99.90;;;;;;5016777;28;20445;-80
2021/10/03 06:35:06;;;;;;;6.43;4.17;;;17.50;99.90;;;;;;5017062;28;20833;-80
2021/10/03 06:37:33;;;;;;;7.30;3.80;;;17.50;99.90;;;;;;5017634;28;20997;-80
2021/10/03 06:40:00;;;;;;;7.00;3.63;;;17.60;99.90;;;;;;5016712;28;20561;-80
2021/10/03 06:42:27;;;;;;;7.40;4.47;;;17.80;99.90;;;;;;5016894;28;20463;-80
2021/10/03 06:44:53;;;;;;;7.00;4.13;;;17.90;99.90;;;;;;5017283;28;20532;-80
2021/10/03 06:47:20;;;;;;;6.00;4.47;;;17.90;99.90;;;;;;5017347;28;20451;-80
2021/10/03 06:49:48;;;;;;;6.70;4.07;;;18.00;99.90;;;;;;5016742;28;20474;-80
2021/10/03 06:52:15;;;;;;;6.43;4.30;;;18.10;99.90;;;;;;5017037;28;20840;-80
2021/10/03 06:54:42;;;;;;;5.90;4.30;;;18.20;99.90;;;;;;5016648;28;20457;-81
2021/10/03 06:57:09;;;;;;;6.07;4.47;;;18.20;99.90;;;;;;5017094;28;20490;-80
2021/10/03 06:59:35;;;;;;;5.50;3.60;;;18.20;99.90;;;;;;5016645;28;20486;-81
2021/10/03 07:02:08;;;;;;;6.03;4.10;;;18.30;99.90;;;;;;5016552;28;20823;-81
2021/10/03 07:04:35;;;;;;;5.67;3.87;;;18.50;99.90;;;;;;5017068;28;21010;-80
2021/10/03 07:07:04;;;;;;;7.47;3.93;;;18.50;99.90;;;;;;5016614;28;20457;-81
2021/10/03 07:09:31;;;;;;;5.10;3.50;;;18.50;99.90;;;;;;5019198;28;20461;-81
2021/10/03 07:11:57;;;;;;;5.47;4.20;;;18.50;99.90;;;;;;5022999;28;20441;-78
2021/10/03 07:14:24;;;;;;;5.57;3.63;;;18.60;99.90;;;;;;5019475;28;20533;-80
2021/10/03 07:16:51;;;;;;;6.13;4.10;;;18.60;99.90;;;;;;5017066;28;21064;-80
2021/10/03 07:19:18;;;;;;;5.80;4.07;;;18.60;99.90;;;;;;5016468;28;20470;-80
2021/10/03 07:21:45;;;;;;;5.73;3.80;;;18.70;99.90;;;;;;5017040;28;20462;-80
2021/10/03 07:24:13;;;;;;;5.60;3.90;;;18.60;99.90;;;;;;5018048;28;20486;-80
2021/10/03 07:26:41;;;;;;;5.63;4.10;;;18.70;99.90;;;;;;5018827;28;20470;-81
2021/10/03 07:29:08;;;;;;;6.63;4.20;;;18.80;99.90;;;;;;5039569;23;20592;-81
2021/10/03 07:31:38;;;;;;;6.43;4.10;;;18.90;99.90;;;;;;5019364;28;20880;-81
2021/10/03 07:34:05;;;;;;;10.20;4.00;;;18.90;99.90;;;;;;5019004;28;20458;-81
2021/10/03 07:36:32;;;;;;;5.80;3.90;;;18.90;99.90;;;;;;5028093;28;20484;-81
2021/10/03 07:38:59;;;;;;;7.17;4.47;;;19.00;99.90;;;;;;5044994;28;20469;-80
2021/10/03 07:41:27;;;;;;;6.13;4.37;;;19.10;99.90;;;;;;5050800;28;20453;-80
2021/10/03 07:43:54;;;;;;;6.10;3.97;;;19.10;99.90;;;;;;5044789;28;20453;-79
2021/10/03 07:46:21;;;;;;;6.50;4.50;;;19.20;99.90;;;;;;5047755;28;20446;-79
2021/10/03 07:48:49;;;;;;;5.23;3.70;;;19.20;99.90;;;;;;5050165;28;20445;-80
2021/10/03 07:51:16;;;;;;;5.80;3.60;;;19.20;99.90;;;;;;5022848;28;20913;-81
2021/10/03 07:53:43;;;;;;;5.37;3.80;;;19.20;99.90;;;;;;5017384;28;20974;-81
2021/10/03 07:56:10;;;;;;;7.27;3.90;;;19.20;99.90;;;;;;5017590;28;20937;-81
2021/10/03 07:58:38;;;;;;;4.70;3.27;;;19.30;99.90;;;;;;5017562;28;20466;-81
2021/10/03 08:01:05;;;;;;;5.03;3.47;;;19.50;99.90;;;;;;5017562;28;20421;-81
2021/10/03 08:03:32;;;;;;;5.57;3.77;;;19.60;99.90;;;;;;5017613;28;20844;-81
2021/10/03 08:05:59;;;;;;;6.30;4.00;;;19.60;99.90;;;;;;5036002;28;20549;-80
2021/10/03 08:08:26;;;;;;;5.20;3.50;;;19.60;99.90;;;;;;5037544;28;20452;-81
2021/10/03 08:10:53;;;;;;;5.90;4.30;;;19.70;99.90;;;;;;5036573;28;20537;-81
2021/10/03 08:13:20;;;;;;;5.10;3.70;;;19.80;99.90;;;;;;5037233;28;20457;-81
2021/10/03 08:15:48;;;;;;;4.33;3.13;;;19.90;99.90;;;;;;5037280;28;20457;-81
2021/10/03 08:18:15;;;;;;;5.80;3.73;;;20.00;99.90;;;;;;5037257;28;20492;-81
2021/10/03 08:20:42;;;;;;;5.53;3.30;;;20.10;99.90;;;;;;5020868;28;21016;-81
2021/10/03 08:23:10;;;;;;;6.50;3.93;;;20.10;99.90;;;;;;5020146;28;20443;-81
2021/10/03 08:25:37;;;;;;;5.40;3.37;;;20.20;99.90;;;;;;5021307;28;20465;-81
2021/10/03 08:28:04;;;;;;;5.60;4.10;;;20.20;99.90;;;;;;5021284;28;20450;-82
2021/10/03 08:30:31;;;;;;;5.40;4.23;;;20.30;99.90;;;;;;5021078;28;20490;-81
2021/10/03 08:32:59;;;;;;;6.97;3.20;;;20.40;99.90;;;;;;5027698;28;20456;-81
2021/10/03 08:35:26;;;;;;;6.00;3.43;;;20.40;99.90;;;;;;5040122;28;20517;-79
2021/10/03 08:37:53;;;;;;;6.27;3.90;;;20.40;99.90;;;;;;5040434;28;20496;-81
2021/10/03 08:40:20;;;;;;;5.33;3.67;;;20.30;99.90;;;;;;5039897;28;20462;-82
2021/10/03 08:42:47;;;;;;;4.97;3.40;;;20.30;99.90;;;;;;5040798;28;20449;-80
2021/10/03 08:45:14;;;;;;;6.40;4.20;;;20.30;99.90;;;;;;5039937;28;20447;-81
2021/10/03 08:47:42;;;;;;;6.40;3.87;;;20.30;99.90;;;;;;5038503;28;20962;-81
2021/10/03 08:50:13;;;;;;;7.50;3.80;;;20.30;99.90;;;;;;5039804;28;20477;-81
2021/10/03 08:52:43;;;;;;;5.70;3.80;;;20.30;99.90;;;;;;5041204;28;20429;-81
2021/10/03 08:55:11;;;;;;;5.63;3.50;;;20.40;99.90;;;;;;5040576;28;20477;-81
2021/10/03 08:57:38;;;;;;;4.50;3.17;;;20.40;99.90;;;;;;5040437;28;20487;-81
2021/10/03 09:00:08;;;;;;;6.60;3.60;;;20.50;99.90;;;;;;5039826;28;20556;-79
2021/10/03 09:02:53;;;;;;;6.30;3.37;;;20.60;99.90;;;;;;5023207;28;20455;-84
2021/10/03 09:05:22;;;;;;;6.30;4.30;;;20.60;99.90;;;;;;5020775;28;20800;-79
2021/10/03 09:08:09;;;;;;;6.70;3.90;;;20.50;99.90;;;;;;5021164;28;20810;-80
2021/10/03 09:10:52;;;;;;;6.23;3.83;;;20.60;99.90;;;;;;5020191;28;20546;-80
2021/10/03 09:13:21;;;;;;;5.90;4.07;;;20.60;99.90;;;;;;5020284;28;20985;-80
2021/10/03 09:16:05;;;;;;;7.40;4.20;;;20.50;99.90;;;;;;5020029;28;20446;-80
2021/10/03 09:18:41;;;;;;;9.10;4.30;;;20.50;99.90;;;;;;5020019;28;20474;-80
2021/10/03 09:21:11;;;;;;;9.00;4.03;;;20.50;99.90;;;;;;5019683;28;20521;-80
2021/10/03 09:23:39;;;;;;;5.37;3.23;;;20.50;99.90;;;;;;5019364;28;20437;-80
2021/10/03 09:26:12;;;;;;;4.93;3.70;;;20.60;99.90;;;;;;5019794;28;21066;-80
2021/10/03 09:28:39;;;;;;;8.83;4.70;;;20.70;99.90;;;;;;5022254;28;20439;-80
2021/10/03 09:31:08;;;;;;;6.33;3.87;;;20.70;99.90;;;;;;5023691;28;20924;-81
2021/10/03 09:33:50;;;;;;;6.00;3.43;;;20.80;99.90;;;;;;5020518;28;20473;-81
2021/10/03 09:36:21;;;;;;;10.53;4.30;;;20.80;99.90;;;;;;5038932;28;20488;-81
2021/10/03 09:38:50;;;;;;;7.60;4.30;;;20.80;99.90;;;;;;5041908;28;20521;-81
2021/10/03 09:41:20;;;;;;;6.57;4.20;;;20.90;99.90;;;;;;5039326;28;20445;-83
2021/10/03 09:43:50;;;;;;;6.63;4.20;;;20.90;99.90;;;;;;5038874;28;20429;-80
2021/10/03 09:46:37;;;;;;;5.90;4.20;;;21.00;99.90;;;;;;5042001;28;20479;-80
2021/10/03 09:49:06;;;;;;;8.90;4.67;;;21.00;99.90;;;;;;5043294;28;20473;-81
2021/10/03 09:51:36;;;;;;;6.63;4.40;;;21.10;99.90;;;;;;5038051;28;20445;-81
2021/10/03 09:54:04;;;;;;;6.27;4.60;;;21.10;99.90;;;;;;5039904;28;20536;-82
2021/10/03 09:56:32;;;;;;;6.37;4.60;;;21.20;99.90;;;;;;5039550;28;20468;-81
2021/10/03 09:59:01;;;;;;;7.10;5.00;;;21.10;99.90;;;;;;5038919;28;20483;-82
2021/10/03 10:01:30;;;;;;;6.70;4.10;;;21.10;99.90;;;;;;5039866;28;20452;-82
2021/10/03 10:03:58;;;;;;;6.00;4.90;;;21.10;99.90;;;;;;5039202;28;20479;-81
2021/10/03 10:06:24;;;;;;;5.73;4.00;;;21.10;99.90;;;;;;5039894;28;20868;-80
2021/10/03 10:08:56;;;;;;;7.73;4.87;;;21.00;99.90;;;;;;5021524;28;20542;-82
2021/10/03 10:11:30;;;;;;;6.47;4.67;;;21.00;99.90;;;;;;5018919;28;20454;-80
2021/10/03 10:13:58;;;;;;;8.53;4.50;;;21.00;99.90;;;;;;5019359;28;20513;-80
2021/10/03 10:16:34;;;;;;;7.87;5.27;;;21.10;99.90;;;;;;5019434;28;20454;-81
2021/10/03 10:19:26;;;;;;;5.83;4.67;;;21.20;99.90;;;;;;5020173;28;20476;-80
2021/10/03 10:22:30;;;;;;;7.13;4.90;;;21.20;99.90;;;;;;5019781;28;20447;-82
2021/10/03 10:25:00;;;;;;;6.27;4.70;;;21.30;99.90;;;;;;5020582;28;20462;-82
2021/10/03 10:28:04;;;;;;;8.30;4.60;;;21.50;99.90;;;;;;5018263;28;20452;-81
2021/10/03 10:30:33;;;;;;;7.60;4.60;;;21.60;99.90;;;;;;5018833;28;20489;-81
2021/10/03 10:33:16;;;;;;;10.37;7.53;;;21.60;99.90;;;;;;5018355;28;20455;-81
2021/10/03 10:35:45;;;;;;;7.33;4.40;;;21.70;99.90;;;;;;5018470;28;20502;-81
2021/10/03 10:38:19;;;;;;;8.63;5.43;;;21.70;99.90;;;;;;5018708;28;20486;-82
2021/10/03 10:40:48;;;;;;;7.50;5.70;;;21.70;99.90;;;;;;5019671;28;20482;-82
2021/10/03 10:43:46;;;;;;;6.50;4.20;;;21.80;99.90;;;;;;5018809;28;20454;-81
2021/10/03 10:46:44;;;;;;;6.67;4.40;;;21.90;99.90;;;;;;5018577;28;20489;-81
2021/10/03 10:49:35;;;;;;;6.50;4.30;;;22.00;99.90;;;;;;5017680;28;20481;-79
2021/10/03 10:52:31;;;;;;;6.67;4.00;;;22.10;99.90;;;;;;5024917;28;20450;-78
2021/10/03 10:55:21;;;;;;;7.87;4.83;;;22.10;99.90;;;;;;5029452;28;20509;-83
2021/10/03 10:58:16;;;;;;;6.17;4.97;;;22.20;99.90;;;;;;5041283;28;20477;-80
2021/10/03 11:01:12;;;;;;;10.10;4.67;;;22.20;99.90;;;;;;5049171;28;20469;-82
2021/10/03 11:03:59;;;;;;;8.50;5.07;;;22.30;99.90;;;;;;5041347;28;20449;-81
2021/10/03 11:06:59;;;;;;;6.60;4.57;;;22.40;99.90;;;;;;5039487;28;20427;-82
2021/10/03 11:09:28;;;;;;;6.47;4.67;;;22.40;99.90;;;;;;5038926;28;20519;-81
2021/10/03 11:12:07;;;;;;;9.83;4.97;;;22.40;99.90;;;;;;5038773;28;20500;-81
2021/10/03 11:14:36;;;;;;;5.57;3.70;;;22.40;99.90;;;;;;5050487;28;20468;-81
2021/10/03 11:17:13;;;;;;;7.20;4.03;;;22.40;99.90;;;;;;5044630;28;20497;-82
2021/10/03 11:19:46;;;;;;;7.90;4.37;;;22.40;99.90;;;;;;5038654;28;20488;-81
2021/10/03 11:22:16;;;;;;;6.87;4.97;;;22.30;99.90;;;;;;5038413;28;20452;-82
2021/10/03 11:24:46;;;;;;;6.53;4.53;;;22.30;99.90;;;;;;5038586;28;20477;-82
2021/10/03 11:27:15;;;;;;;6.90;4.60;;;22.20;99.90;;;;;;5038446;28;20437;-82
2021/10/03 11:29:45;;;;;;;7.37;3.43;;;22.20;99.90;;;;;;5038175;28;20552;-81
2021/10/03 11:32:15;;;;;;;9.33;5.37;;;22.20;99.90;;;;;;5004602;28;20483;-81
2021/10/03 11:34:43;;;;;;;6.53;4.80;;;22.20;99.90;;;;;;5003843;28;20542;-80
2021/10/03 11:37:13;;;;;;;6.40;4.70;;;22.20;99.90;;;;;;5000982;28;20539;-81
2021/10/03 11:39:53;;;;;;;8.73;5.20;;;22.30;99.90;;;;;;4999924;28;20824;-82
2021/10/03 11:42:31;;;;;;;8.10;4.80;;;22.30;99.90;;;;;;4999303;28;20498;-82
2021/10/03 11:45:00;;;;;;;7.10;4.50;;;22.30;99.90;;;;;;4999899;28;20622;-80
2021/10/03 11:47:28;;;;;;;7.40;4.80;;;22.30;99.90;;;;;;5018799;28;20456;-81
2021/10/03 11:50:01;;;;;;;7.20;5.10;;;22.40;99.90;;;;;;5037648;28;20524;-82
2021/10/03 11:52:31;;;;;;;9.10;4.80;;;22.30;99.90;;;;;;5042199;28;20520;-81
2021/10/03 11:55:04;;;;;;;7.47;5.67;;;22.30;99.90;;;;;;5043592;28;20451;-81
2021/10/03 11:57:31;;;;;;;8.70;5.33;;;22.40;99.90;;;;;;5042256;28;20509;-82
2021/10/03 12:00:16;;;;;;;6.83;4.30;;;22.30;99.90;;;;;;5041805;28;20821;-82
2021/10/03 12:02:47;;;;;;;9.93;5.13;;;22.30;99.90;;;;;;5040203;28;20540;-81
2021/10/03 12:05:18;;;;;;;5.63;4.10;;;22.30;99.90;;;;;;5021782;28;20439;-82
2021/10/03 12:07:45;;;;;;;7.50;5.07;;;22.30;99.90;;;;;;5021824;28;20450;-81
2021/10/03 12:10:14;;;;;;;6.57;5.03;;;22.30;99.90;;;;;;5022005;28;20668;-81
2021/10/03 12:12:59;;;;;;;7.43;4.90;;;22.40;99.90;;;;;;5021803;28;20526;-81
2021/10/03 12:15:52;;;;;;;6.20;4.40;;;22.50;99.90;;;;;;5021995;28;20433;-80
2021/10/03 12:18:42;;;;;;;5.87;3.60;;;22.50;99.90;;;;;;5022061;28;20470;-82
2021/10/03 12:21:17;;;;;;;7.03;4.30;;;22.50;99.90;;;;;;5023031;28;20935;-81
2021/10/03 12:23:54;;;;;;;8.20;6.10;;;22.40;99.90;;;;;;5022426;28;20461;-83
2021/10/03 12:26:33;;;;;;;7.93;5.87;;;22.40;99.90;;;;;;5021770;28;20438;-82
2021/10/03 12:29:18;;;;;;;7.57;6.10;;;22.50;99.90;;;;;;5021537;28;20480;-81
2021/10/03 12:31:50;;;;;;;9.97;6.30;;;22.60;99.90;;;;;;5021817;28;20485;-81
2021/10/03 12:34:39;;;;;;;6.63;4.50;;;22.70;99.90;;;;;;5026903;28;20447;-81
2021/10/03 12:37:08;;;;;;;7.40;6.10;;;22.90;99.90;;;;;;5039239;28;20457;-81
2021/10/03 12:39:38;;;;;;;7.00;5.27;;;22.90;99.90;;;;;;5033593;28;20578;-81
2021/10/03 12:42:08;;;;;;;7.43;4.97;;;22.90;99.90;;;;;;5029454;28;20442;-81
2021/10/03 12:44:36;;;;;;;8.53;5.00;;;23.00;99.90;;;;;;5028496;28;20449;-79
2021/10/03 12:47:05;;;;;;;8.93;6.40;;;23.00;99.90;;;;;;5028293;28;20514;-80
2021/10/03 12:49:35;;;;;;;7.27;5.10;;;23.10;99.90;;;;;;5027084;28;20491;-81
2021/10/03 12:52:02;;;;;;;11.60;5.50;;;23.10;99.90;;;;;;5025500;28;20460;-81
2021/10/03 12:54:29;;;;;;;8.23;5.90;;;23.20;99.90;;;;;;5021883;28;20468;-81
2021/10/03 12:56:56;;;;;;;8.33;5.40;;;23.30;99.90;;;;;;5021054;28;20450;-80
2021/10/03 12:59:24;;;;;;;9.73;5.20;;;23.40;99.90;;;;;;5025531;28;20494;-80